createdAt,value
2022-10-27T00:00:49.770Z,102093.20
2022-10-27T00:03:18.353Z,102096.48
2022-10-27T00:05:47.308Z,102098.65
2022-10-27T00:08:19.800Z,102097.28
2022-10-27T00:10:59.738Z,102098.73
2022-10-27T00:13:26.801Z,102097.34
2022-10-27T00:16:02.544Z,102096.31
2022-10-27T00:18:29.668Z,102097.21
2022-10-27T00:21:02.509Z,102096.93
2022-10-27T00:23:29.812Z,102095.30
2022-10-27T00:25:59.061Z,102096.54
2022-10-27T00:28:28.096Z,102097.60
2022-10-27T00:31:23.398Z,102100.48
2022-10-27T00:34:00.272Z,102096.73
2022-10-27T00:36:28.828Z,102101.59
2022-10-27T00:38:58.305Z,102104.48
2022-10-27T00:41:28.180Z,102106.08
2022-10-27T00:43:56.125Z,102101.59
2022-10-27T00:46:31.627Z,102099.98
2022-10-27T00:49:06.060Z,102105.27
2022-10-27T00:51:34.495Z,102107.19
2022-10-27T00:54:02.855Z,102103.95
2022-10-27T00:56:30.925Z,102106.41
2022-10-27T00:59:26.188Z,102108.33
2022-10-27T01:04:53.260Z,102104.15
2022-10-27T01:07:23.466Z,102105.74
2022-10-27T01:09:52.182Z,102110.39
2022-10-27T01:12:20.163Z,102108.46
2022-10-27T01:14:48.179Z,102105.77
2022-10-27T01:17:38.889Z,102105.50
2022-10-27T01:20:21.818Z,102104.59
2022-10-27T01:23:26.245Z,102107.08
2022-10-27T01:26:10.969Z,102104.84
2022-10-27T01:29:02.891Z,102107.50
2022-10-27T01:31:30.747Z,102105.63
2022-10-27T01:34:17.936Z,102106.41
2022-10-27T01:37:05.288Z,102107.58
2022-10-27T01:39:48.002Z,102103.45
2022-10-27T01:42:32.054Z,102102.66
2022-10-27T01:45:01.719Z,102107.98
2022-10-27T01:47:32.092Z,102108.24
2022-10-27T01:49:59.918Z,102109.30
2022-10-27T01:52:51.906Z,102109.95
2022-10-27T01:55:22.222Z,102109.95
2022-10-27T01:58:04.727Z,102107.95
2022-10-27T02:00:40.706Z,102109.33
2022-10-27T02:03:14.560Z,102107.66
2022-10-27T02:06:12.960Z,102108.62
2022-10-27T02:08:54.082Z,102109.83
2022-10-27T02:13:59.370Z,102104.92
2022-10-27T02:16:31.114Z,102103.15
2022-10-27T02:19:13.950Z,102100.34
2022-10-27T02:21:43.909Z,102104.90
2022-10-27T02:24:11.358Z,102101.80
2022-10-27T02:26:48.717Z,102100.45
2022-10-27T02:29:25.699Z,102096.94
2022-10-27T02:31:57.335Z,102100.08
2022-10-27T02:34:27.382Z,102100.68
2022-10-27T02:36:54.839Z,102101.76
2022-10-27T02:39:22.322Z,102103.13
2022-10-27T02:41:53.489Z,102104.99
2022-10-27T02:44:30.624Z,102104.82
2022-10-27T02:47:01.286Z,102106.00
2022-10-27T02:49:29.427Z,102105.80
2022-10-27T02:51:56.907Z,102108.25
2022-10-27T02:54:24.333Z,102107.08
2022-10-27T02:56:52.097Z,102113.16
2022-10-27T02:59:20.009Z,102113.64
2022-10-27T03:01:47.708Z,102109.06
2022-10-27T03:04:15.707Z,102104.15
2022-10-27T03:06:43.852Z,102108.36
2022-10-27T03:09:12.247Z,102107.19
2022-10-27T03:11:42.681Z,102107.55
2022-10-27T03:14:13.573Z,102107.29
2022-10-27T03:16:40.838Z,102109.69
2022-10-27T03:19:08.775Z,102110.44
2022-10-27T03:21:36.574Z,102111.45
2022-10-27T03:24:04.830Z,102115.14
2022-10-27T03:26:32.662Z,102112.15
2022-10-27T03:29:03.434Z,102110.60
2022-10-27T03:31:31.193Z,102112.41
2022-10-27T03:34:01.327Z,102113.75
2022-10-27T03:36:33.066Z,102113.73
2022-10-27T03:39:00.801Z,102111.44
2022-10-27T03:41:29.928Z,102114.54
2022-10-27T03:44:00.550Z,102115.97
2022-10-27T03:46:28.366Z,102117.24
2022-10-27T03:48:56.284Z,102116.83
2022-10-27T03:51:23.671Z,102119.61
2022-10-27T03:53:51.552Z,102121.58
2022-10-27T03:56:19.019Z,102122.33
2022-10-27T03:58:47.069Z,102122.44
2022-10-27T04:01:19.834Z,102123.92
2022-10-27T04:03:51.302Z,102122.85
2022-10-27T04:06:18.974Z,102123.06
2022-10-27T04:08:46.413Z,102123.08
2022-10-27T04:11:14.418Z,102126.48
2022-10-27T04:13:41.986Z,102128.17
2022-10-27T04:16:10.645Z,102132.26
2022-10-27T04:18:41.388Z,102132.58
2022-10-27T04:21:09.021Z,102129.41
2022-10-27T04:23:36.348Z,102131.85
2022-10-27T04:26:04.230Z,102131.53
2022-10-27T04:28:34.404Z,102134.52
2022-10-27T04:31:02.713Z,102136.54
2022-10-27T04:33:30.304Z,102133.81
2022-10-27T04:35:59.676Z,102133.55
2022-10-27T04:38:27.639Z,102133.23
2022-10-27T04:40:56.308Z,102132.05
2022-10-27T04:43:23.597Z,102136.15
2022-10-27T04:45:51.229Z,102134.27
2022-10-27T04:48:19.127Z,102135.99
2022-10-27T04:50:46.801Z,102138.88
2022-10-27T04:53:14.478Z,102137.92
2022-10-27T04:55:43.662Z,102137.13
2022-10-27T04:58:13.818Z,102135.27
2022-10-27T05:00:43.298Z,102140.17
2022-10-27T05:03:11.246Z,102140.33
2022-10-27T05:05:39.023Z,102140.54
2022-10-27T05:08:07.451Z,102140.00
2022-10-27T05:10:35.609Z,102143.94
2022-10-27T05:13:12.185Z,102140.69
2022-10-27T05:15:42.750Z,102143.34
2022-10-27T05:18:10.728Z,102143.25
2022-10-27T05:20:39.703Z,102144.70
2022-10-27T05:23:07.676Z,102146.89
2022-10-27T05:25:35.451Z,102144.39
2022-10-27T05:28:07.685Z,102150.53
2022-10-27T05:30:38.844Z,102151.66
2022-10-27T05:33:06.700Z,102155.28
2022-10-27T05:35:35.145Z,102150.86
2022-10-27T05:38:03.210Z,102156.19
2022-10-27T05:40:35.008Z,102150.48
2022-10-27T05:43:04.304Z,102151.88
2022-10-27T05:45:32.428Z,102150.58
2022-10-27T05:48:07.754Z,102151.07
2022-10-27T05:50:36.145Z,102153.42
2022-10-27T05:53:03.796Z,102154.59
2022-10-27T05:55:31.298Z,102155.98
2022-10-27T05:58:03.904Z,102158.70
2022-10-27T06:00:34.970Z,102164.68
2022-10-27T06:03:07.540Z,102165.73
2022-10-27T06:05:37.687Z,102167.45
2022-10-27T06:08:05.301Z,102169.79
2022-10-27T06:10:33.093Z,102175.53
2022-10-27T06:13:09.645Z,102178.36
2022-10-27T06:15:37.486Z,102177.02
2022-10-27T06:18:27.936Z,102183.20
2022-10-27T06:20:55.874Z,102187.95
2022-10-27T06:23:35.846Z,102189.13
2022-10-27T06:26:03.286Z,102194.04
2022-10-27T06:28:30.741Z,102196.40
2022-10-27T06:30:58.716Z,102200.48
2022-10-27T06:33:26.183Z,102201.83
2022-10-27T06:35:54.404Z,102205.98
2022-10-27T06:38:21.597Z,102208.16
2022-10-27T06:40:52.357Z,102205.02
2022-10-27T06:43:21.052Z,102209.86
2022-10-27T06:45:49.586Z,102212.38
2022-10-27T06:48:17.165Z,102215.23
2022-10-27T06:50:44.360Z,102216.25
2022-10-27T06:53:11.595Z,102220.05
2022-10-27T06:55:38.917Z,102221.56
2022-10-27T06:58:06.491Z,102221.98
2022-10-27T07:00:34.183Z,102224.17
2022-10-27T07:03:07.664Z,102224.80
2022-10-27T07:05:34.931Z,102226.72
2022-10-27T07:08:14.031Z,102228.33
2022-10-27T07:10:41.988Z,102229.87
2022-10-27T07:13:11.592Z,102233.64
2022-10-27T07:15:39.821Z,102236.41
2022-10-27T07:18:09.064Z,102236.63
2022-10-27T07:20:40.643Z,102241.99
2022-10-27T07:23:10.806Z,102242.84
2022-10-27T07:25:40.079Z,102245.64
2022-10-27T07:28:08.056Z,102249.84
2022-10-27T07:30:40.591Z,102247.39
2022-10-27T07:33:08.099Z,102250.16
2022-10-27T07:35:37.124Z,102250.33
2022-10-27T07:38:05.303Z,102255.14
2022-10-27T07:40:33.566Z,102254.23
2022-10-27T07:43:06.959Z,102258.05
2022-10-27T07:45:38.131Z,102260.82
2022-10-27T07:48:07.330Z,102259.43
2022-10-27T07:50:35.112Z,102261.14
2022-10-27T07:53:02.941Z,102258.73
2022-10-27T07:55:32.531Z,102261.32
2022-10-27T07:58:08.283Z,102257.80
2022-10-27T08:00:38.849Z,102258.48
2022-10-27T08:03:08.363Z,102260.41
2022-10-27T08:05:38.130Z,102260.70
2022-10-27T08:08:07.444Z,102261.64
2022-10-27T08:10:38.508Z,102262.23
2022-10-27T08:13:06.314Z,102260.33
2022-10-27T08:15:34.958Z,102257.39
2022-10-27T08:18:04.629Z,102257.13
2022-10-27T08:20:34.947Z,102253.97
2022-10-27T08:23:05.565Z,102257.08
2022-10-27T08:25:36.607Z,102261.10
2022-10-27T08:28:04.951Z,102261.05
2022-10-27T08:30:35.215Z,102262.29
2022-10-27T08:33:05.543Z,102267.04
2022-10-27T08:35:34.764Z,102265.17
2022-10-27T08:38:05.212Z,102264.48
2022-10-27T08:41:04.526Z,102265.09
2022-10-27T08:43:56.267Z,102273.10
2022-10-27T08:46:36.857Z,102270.42
2022-10-27T08:49:11.019Z,102274.26
2022-10-27T08:51:41.254Z,102278.31
2022-10-27T08:54:10.620Z,102280.04
2022-10-27T08:56:41.013Z,102282.30
2022-10-27T08:59:28.512Z,102284.41
2022-10-27T09:02:13.520Z,102285.58
2022-10-27T09:05:19.603Z,102289.99
2022-10-27T09:08:19.610Z,102294.68
2022-10-27T09:10:49.728Z,102297.40
2022-10-27T09:13:34.016Z,102297.92
2022-10-27T09:16:16.065Z,102296.55
2022-10-27T09:18:48.563Z,102295.46
2022-10-27T09:21:22.160Z,102300.52
2022-10-27T09:23:56.119Z,102300.41
2022-10-27T09:26:31.288Z,102295.40
2022-10-27T09:29:03.831Z,102296.49
2022-10-27T09:31:54.008Z,102294.78
2022-10-27T09:34:51.259Z,102293.82
2022-10-27T09:37:21.592Z,102296.91
2022-10-27T09:40:00.547Z,102293.45
2022-10-27T09:42:32.556Z,102296.38
2022-10-27T09:45:01.856Z,102291.73
2022-10-27T09:47:36.088Z,102289.88
2022-10-27T09:50:06.545Z,102294.46
2022-10-27T09:52:42.837Z,102292.23
2022-10-27T09:55:12.299Z,102291.40
2022-10-27T09:57:42.453Z,102291.19
2022-10-27T10:00:22.588Z,102287.93
2022-10-27T10:03:06.703Z,102290.25
2022-10-27T10:05:38.512Z,102291.10
2022-10-27T10:08:39.002Z,102295.05
2022-10-27T10:11:20.482Z,102295.00
2022-10-27T10:14:00.570Z,102294.61
2022-10-27T10:16:31.770Z,102289.98
2022-10-27T10:19:05.518Z,102291.05
2022-10-27T10:21:49.170Z,102292.34
2022-10-27T10:24:20.960Z,102288.02
2022-10-27T10:26:52.590Z,102280.28
2022-10-27T10:29:29.430Z,102279.92
2022-10-27T10:32:19.389Z,102279.98
2022-10-27T10:34:48.161Z,102276.83
2022-10-27T10:37:35.321Z,102273.31
2022-10-27T10:40:18.286Z,102271.70
2022-10-27T10:42:48.173Z,102270.98
2022-10-27T10:45:19.258Z,102275.30
2022-10-27T10:47:56.224Z,102275.25
2022-10-27T10:50:27.213Z,102280.10
2022-10-27T10:52:57.776Z,102276.30
2022-10-27T10:55:35.734Z,102271.14
2022-10-27T10:58:18.467Z,102265.15
2022-10-27T11:01:04.337Z,102264.37
2022-10-27T11:03:44.599Z,102265.55
2022-10-27T11:06:30.185Z,102258.61
2022-10-27T11:09:03.033Z,102255.63
2022-10-27T11:11:45.745Z,102251.63
2022-10-27T11:14:16.928Z,102250.62
2022-10-27T11:16:55.683Z,102245.92
2022-10-27T11:19:29.257Z,102240.70
2022-10-27T11:22:11.681Z,102237.27
2022-10-27T11:24:56.240Z,102234.40
2022-10-27T11:27:36.218Z,102234.29
2022-10-27T11:30:26.965Z,102236.21
2022-10-27T11:33:30.347Z,102231.10
2022-10-27T11:36:21.471Z,102234.25
2022-10-27T11:39:22.983Z,102229.60
2022-10-27T11:42:09.760Z,102224.45
2022-10-27T11:47:32.688Z,102225.61
2022-10-27T11:50:25.370Z,102225.34
2022-10-27T11:52:57.127Z,102221.71
2022-10-27T11:55:40.566Z,102222.46
2022-10-27T11:58:46.749Z,102218.41
2022-10-27T12:01:31.003Z,102213.73
2022-10-27T12:04:37.229Z,102211.45
2022-10-27T12:07:32.068Z,102210.16
2022-10-27T12:10:17.164Z,102205.90
2022-10-27T12:12:49.508Z,102206.86
2022-10-27T12:15:26.091Z,102205.10
2022-10-27T12:18:06.149Z,102203.19
2022-10-27T12:21:08.105Z,102201.68
2022-10-27T12:23:49.359Z,102197.15
2022-10-27T12:26:29.289Z,102197.08
2022-10-27T12:28:58.852Z,102194.32
2022-10-27T12:31:34.333Z,102189.67
2022-10-27T12:34:08.452Z,102190.10
2022-10-27T12:37:04.915Z,102182.10
2022-10-27T12:39:49.466Z,102177.95
2022-10-27T12:42:26.750Z,102180.73
2022-10-27T12:47:57.476Z,102179.98
2022-10-27T12:48:49.106Z,102176.81
2022-10-27T12:51:37.188Z,102178.30
2022-10-27T12:54:39.961Z,102178.14
2022-10-27T12:57:32.650Z,102176.31
2022-10-27T13:00:11.538Z,102175.58
2022-10-27T13:02:52.087Z,102172.20
2022-10-27T13:05:58.401Z,102167.52
2022-10-27T13:08:29.668Z,102159.36
2022-10-27T13:11:41.075Z,102155.84
2022-10-27T13:14:22.172Z,102159.84
2022-10-27T13:17:20.238Z,102160.59
2022-10-27T13:20:03.733Z,102159.36
2022-10-27T13:23:10.679Z,102162.45
2022-10-27T13:26:15.544Z,102159.36
2022-10-27T13:28:54.735Z,102156.42
2022-10-27T13:31:25.409Z,102156.02
2022-10-27T13:34:14.290Z,102155.75
2022-10-27T13:36:45.158Z,102154.80
2022-10-27T13:39:16.471Z,102157.46
2022-10-27T13:41:57.519Z,102156.02
2022-10-27T13:44:38.254Z,102156.40
2022-10-27T13:47:08.631Z,102156.98
2022-10-27T13:49:42.485Z,102156.59
2022-10-27T13:52:23.596Z,102157.08
2022-10-27T13:54:52.557Z,102156.48
2022-10-27T13:57:52.696Z,102160.55
2022-10-27T14:00:24.194Z,102157.09
2022-10-27T14:03:21.653Z,102159.43
2022-10-27T14:05:50.634Z,102156.30
2022-10-27T14:08:24.697Z,102157.52
2022-10-27T14:10:54.948Z,102157.95
2022-10-27T14:13:27.077Z,102160.77
2022-10-27T14:16:02.469Z,102156.55
2022-10-27T14:18:36.490Z,102161.02
2022-10-27T14:21:25.177Z,102159.96
2022-10-27T14:24:03.568Z,102159.02
2022-10-27T14:26:36.561Z,102158.53
2022-10-27T14:29:09.710Z,102164.52
2022-10-27T14:31:37.944Z,102162.86
2022-10-27T14:34:35.474Z,102162.53
2022-10-27T14:37:04.265Z,102159.70
2022-10-27T14:39:37.669Z,102160.35
2022-10-27T14:42:14.436Z,102160.45
2022-10-27T14:44:46.972Z,102157.09
2022-10-27T14:47:17.760Z,102158.52
2022-10-27T14:49:59.311Z,102156.77
2022-10-27T14:52:33.026Z,102159.16
2022-10-27T14:55:01.725Z,102159.27
2022-10-27T14:57:35.837Z,102161.41
2022-10-27T15:00:30.953Z,102161.89
2022-10-27T15:03:05.565Z,102160.55
2022-10-27T15:05:46.710Z,102163.54
2022-10-27T15:08:32.079Z,102159.64
2022-10-27T15:11:01.490Z,102161.55
2022-10-27T15:13:29.481Z,102158.40
2022-10-27T15:15:59.471Z,102160.91
2022-10-27T15:18:33.926Z,102162.89
2022-10-27T15:21:47.195Z,102159.20
2022-10-27T15:24:20.466Z,102162.14
2022-10-27T15:26:48.529Z,102163.73
2022-10-27T15:29:21.435Z,102164.48
2022-10-27T15:32:00.305Z,102163.41
2022-10-27T15:34:38.026Z,102162.66
2022-10-27T15:37:26.532Z,102157.42
2022-10-27T15:39:56.646Z,102159.71
2022-10-27T15:42:29.434Z,102155.73
2022-10-27T15:45:25.015Z,102155.13
2022-10-27T15:47:56.400Z,102155.20
2022-10-27T15:50:43.813Z,102149.64
2022-10-27T15:53:15.886Z,102147.08
2022-10-27T15:55:47.271Z,102150.98
2022-10-27T15:58:33.411Z,102154.29
2022-10-27T16:01:12.707Z,102152.89
2022-10-27T16:03:44.173Z,102155.77
2022-10-27T16:06:24.111Z,102154.92
2022-10-27T16:08:53.082Z,102150.02
2022-10-27T16:11:32.648Z,102148.48
2022-10-27T16:14:05.713Z,102150.13
2022-10-27T16:16:37.952Z,102147.90
2022-10-27T16:19:07.699Z,102145.66
2022-10-27T16:21:37.218Z,102146.40
2022-10-27T16:24:19.164Z,102141.60
2022-10-27T16:26:48.719Z,102143.99
2022-10-27T16:29:20.077Z,102146.66
2022-10-27T16:31:49.538Z,102153.96
2022-10-27T16:34:23.694Z,102154.55
2022-10-27T16:36:56.552Z,102158.41
2022-10-27T16:39:23.878Z,102154.73
2022-10-27T16:41:51.687Z,102153.77
2022-10-27T16:44:19.899Z,102156.86
2022-10-27T16:46:47.809Z,102155.47
2022-10-27T16:49:17.988Z,102154.77
2022-10-27T16:51:45.540Z,102162.29
2022-10-27T16:54:13.789Z,102162.46
2022-10-27T16:56:46.297Z,102168.42
2022-10-27T16:59:14.158Z,102168.52
2022-10-27T17:01:45.342Z,102171.20
2022-10-27T17:04:13.141Z,102173.84
2022-10-27T17:06:40.709Z,102174.15
2022-10-27T17:09:12.019Z,102174.31
2022-10-27T17:11:43.799Z,102174.25
2022-10-27T17:14:11.686Z,102178.83
2022-10-27T17:16:40.233Z,102176.91
2022-10-27T17:19:07.835Z,102180.96
2022-10-27T17:21:35.752Z,102187.63
2022-10-27T17:24:04.153Z,102185.93
2022-10-27T17:26:33.955Z,102186.66
2022-10-27T17:29:05.586Z,102188.09
2022-10-27T17:31:33.709Z,102194.96
2022-10-27T17:34:02.292Z,102200.17
2022-10-27T17:36:30.440Z,102199.73
2022-10-27T17:39:00.864Z,102202.81
2022-10-27T17:41:28.714Z,102202.34
2022-10-27T17:43:59.082Z,102203.83
2022-10-27T17:46:31.719Z,102203.83
2022-10-27T17:49:13.271Z,102205.30
2022-10-27T17:51:41.836Z,102210.69
2022-10-27T17:54:13.138Z,102217.48
2022-10-27T17:56:41.537Z,102216.27
2022-10-27T18:04:49.645Z,102215.34
2022-10-27T18:07:21.735Z,102213.32
2022-10-27T18:09:49.259Z,102215.45
2022-10-27T18:12:17.024Z,102215.51
2022-10-27T18:14:50.987Z,102219.23
2022-10-27T18:17:28.680Z,102221.80
2022-10-27T18:19:56.309Z,102219.88
2022-10-27T18:22:33.607Z,102222.65
2022-10-27T18:25:06.938Z,102222.66
2022-10-27T18:27:38.077Z,102224.80
2022-10-27T18:30:06.631Z,102228.01
2022-10-27T18:32:34.702Z,102225.50
2022-10-27T18:35:05.251Z,102225.13
2022-10-27T18:37:45.974Z,102225.54
2022-10-27T18:40:16.438Z,102230.56
2022-10-27T18:42:47.067Z,102225.91
2022-10-27T18:45:15.270Z,102219.73
2022-10-27T18:47:48.323Z,102225.33
2022-10-27T18:50:19.055Z,102223.34
2022-10-27T18:52:48.003Z,102227.63
2022-10-27T18:55:18.774Z,102231.73
2022-10-27T18:57:52.452Z,102233.23
2022-10-27T19:00:23.479Z,102230.83
2022-10-27T19:02:53.398Z,102233.17
2022-10-27T19:05:50.768Z,102235.04
2022-10-27T19:08:18.043Z,102232.63
2022-10-27T19:10:57.996Z,102235.41
2022-10-27T19:13:29.471Z,102237.70
2022-10-27T19:16:35.757Z,102239.27
2022-10-27T19:19:14.930Z,102238.58
2022-10-27T19:21:48.423Z,102234.20
2022-10-27T19:24:16.726Z,102236.87
2022-10-27T19:29:31.221Z,102241.73
2022-10-27T19:32:00.018Z,102241.61
2022-10-27T19:34:40.802Z,102243.16
2022-10-27T19:37:08.849Z,102243.16
2022-10-27T19:39:36.605Z,102244.36
2022-10-27T19:42:08.136Z,102240.79
2022-10-27T19:44:38.470Z,102236.67
2022-10-27T19:47:07.170Z,102238.45
2022-10-27T19:49:35.175Z,102239.71
2022-10-27T19:52:23.886Z,102243.08
2022-10-27T19:54:52.973Z,102243.29
2022-10-27T19:57:46.681Z,102244.34
2022-10-27T20:00:41.708Z,102243.48
2022-10-27T20:03:10.157Z,102242.86
2022-10-27T20:05:38.121Z,102242.48
2022-10-27T20:08:06.027Z,102240.78
2022-10-27T20:10:33.518Z,102241.68
2022-10-27T20:19:27.136Z,102234.91
2022-10-27T20:22:01.078Z,102235.27
2022-10-27T20:24:54.863Z,102234.08
2022-10-27T20:28:00.736Z,102235.46
2022-10-27T20:30:28.257Z,102235.36
2022-10-27T20:33:14.268Z,102234.39
2022-10-27T20:35:43.117Z,102235.63
2022-10-27T20:38:13.975Z,102235.30
2022-10-27T20:41:09.239Z,102237.11
2022-10-27T20:43:37.836Z,102237.45
2022-10-27T20:46:06.979Z,102237.63
2022-10-27T20:48:34.687Z,102237.34
2022-10-27T20:51:05.723Z,102235.91
2022-10-27T20:53:38.595Z,102234.63
2022-10-27T20:56:16.922Z,102240.66
2022-10-27T20:59:56.781Z,102242.20
2022-10-27T21:02:52.521Z,102238.20
2022-10-27T21:07:59.019Z,102239.86
2022-10-27T21:10:28.072Z,102241.30
2022-10-27T21:13:01.513Z,102242.13
2022-10-27T21:15:34.484Z,102242.77
2022-10-27T21:18:24.159Z,102242.89
2022-10-27T21:20:53.705Z,102240.63
2022-10-27T21:23:23.988Z,102238.66
2022-10-27T21:25:51.053Z,102234.79
2022-10-27T21:34:07.442Z,102233.98
2022-10-27T21:36:44.625Z,102233.55
2022-10-27T21:39:13.111Z,102235.83
2022-10-27T21:41:45.774Z,102238.22
2022-10-27T21:44:15.839Z,102234.70
2022-10-27T21:46:45.676Z,102239.95
2022-10-27T21:49:13.702Z,102238.08
2022-10-27T21:51:45.540Z,102238.39
2022-10-27T21:58:40.613Z,102234.27
2022-10-27T22:07:10.810Z,102238.97
2022-10-27T22:09:46.007Z,102237.05
2022-10-27T22:12:13.087Z,102233.91
2022-10-27T22:14:49.326Z,102233.54
2022-10-27T22:17:27.589Z,102236.47
2022-10-27T22:19:54.653Z,102236.20
2022-10-27T22:22:25.174Z,102237.52
2022-10-27T22:25:24.063Z,102236.77
2022-10-27T22:27:51.599Z,102233.94
2022-10-27T22:30:20.805Z,102229.21
2022-10-27T22:32:48.129Z,102231.11
2022-10-27T22:35:16.986Z,102232.14
2022-10-27T22:37:44.706Z,102233.20
2022-10-27T22:40:22.526Z,102233.30
2022-10-27T22:42:54.243Z,102232.83
2022-10-27T22:48:07.363Z,102225.61
2022-10-27T22:53:53.425Z,102225.41
2022-10-27T22:56:29.819Z,102224.23
2022-10-27T22:59:09.766Z,102226.48
2022-10-27T23:05:15.100Z,102228.45
2022-10-27T23:07:44.795Z,102226.05
2022-10-27T23:10:15.921Z,102228.55
2022-10-27T23:12:44.818Z,102225.52
2022-10-27T23:15:15.906Z,102227.07
2022-10-27T23:17:43.591Z,102226.97
2022-10-27T23:20:15.427Z,102226.06
2022-10-27T23:22:46.959Z,102219.39
2022-10-27T23:25:15.418Z,102222.95
2022-10-27T23:27:44.438Z,102225.45
2022-10-27T23:30:26.448Z,102224.02
2022-10-27T23:33:02.576Z,102225.34
2022-10-27T23:35:30.000Z,102224.92
2022-10-27T23:38:00.479Z,102225.15
2022-10-27T23:40:34.056Z,102222.91
2022-10-27T23:43:08.027Z,102219.75
2022-10-27T23:45:40.279Z,102222.59
2022-10-27T23:48:15.035Z,102223.39
2022-10-27T23:50:52.369Z,102220.55
2022-10-27T23:53:19.569Z,102220.55
2022-10-27T23:56:14.520Z,102220.86
2022-10-27T23:58:47.074Z,102216.91
